createdAt,value
2022-08-22T00:02:20.818Z,91.80
2022-08-22T00:02:54.874Z,89.80
2022-08-22T00:02:57.072Z,81.50
2022-08-22T00:03:12.380Z,91.40
2022-08-22T00:03:12.559Z,91.00
2022-08-22T00:04:58.056Z,91.80
2022-08-22T00:07:37.116Z,91.90
2022-08-22T00:10:12.674Z,91.90
2022-08-22T00:13:00.184Z,92.00
2022-08-22T00:15:43.248Z,92.10
2022-08-22T00:18:18.213Z,92.10
2022-08-22T00:20:50.579Z,92.20
2022-08-22T00:23:23.741Z,92.20
2022-08-22T00:25:57.618Z,92.20
2022-08-22T00:28:30.875Z,92.20
2022-08-22T00:31:08.524Z,92.20
2022-08-22T00:33:43.920Z,92.30
2022-08-22T00:36:18.983Z,92.30
2022-08-22T00:38:58.593Z,92.30
2022-08-22T00:41:40.119Z,92.30
2022-08-22T00:44:49.627Z,92.40
2022-08-22T00:47:58.723Z,92.40
2022-08-22T00:50:46.563Z,92.40
2022-08-22T00:53:40.099Z,92.50
2022-08-22T00:56:25.723Z,92.50
2022-08-22T00:59:22.755Z,92.60
2022-08-22T01:01:58.494Z,92.60
2022-08-22T01:04:58.288Z,92.60
2022-08-22T01:07:45.696Z,92.60
2022-08-22T01:10:27.689Z,92.70
2022-08-22T01:13:13.488Z,92.70
2022-08-22T01:15:43.467Z,92.80
2022-08-22T01:18:44.414Z,92.80
2022-08-22T01:22:04.283Z,92.80
2022-08-22T01:25:25.918Z,92.80
2022-08-22T01:28:35.328Z,92.90
2022-08-22T01:31:42.850Z,92.90
2022-08-22T01:34:52.028Z,93.00
2022-08-22T01:38:03.191Z,93.10
2022-08-22T01:41:07.921Z,93.10
2022-08-22T01:44:03.850Z,93.20
2022-08-22T01:46:38.215Z,93.20
2022-08-22T01:49:16.071Z,93.30
2022-08-22T01:51:51.485Z,93.30
2022-08-22T01:54:29.464Z,93.30
2022-08-22T01:57:03.244Z,93.20
2022-08-22T01:59:42.247Z,93.20
2022-08-22T02:02:26.460Z,93.20
2022-08-22T02:05:02.329Z,93.20
2022-08-22T02:07:35.934Z,93.30
2022-08-22T02:10:15.636Z,93.30
2022-08-22T02:12:52.213Z,93.40
2022-08-22T02:15:25.178Z,93.40
2022-08-22T02:18:04.366Z,93.40
2022-08-22T02:20:37.842Z,93.40
2022-08-22T02:23:18.723Z,93.50
2022-08-22T02:25:53.979Z,93.50
2022-08-22T02:28:34.098Z,93.50
2022-08-22T02:31:07.476Z,93.60
2022-08-22T02:33:47.638Z,93.60
2022-08-22T02:36:21.334Z,93.60
2022-08-22T02:39:05.212Z,93.70
2022-08-22T02:41:39.534Z,93.70
2022-08-22T02:44:20.886Z,93.80
2022-08-22T02:46:57.266Z,93.90
2022-08-22T02:49:34.329Z,93.90
2022-08-22T02:52:08.945Z,94.00
2022-08-22T02:54:43.936Z,94.10
2022-08-22T02:57:15.553Z,94.10
2022-08-22T03:00:24.992Z,94.20
2022-08-22T03:03:15.937Z,94.20
2022-08-22T03:05:52.168Z,94.30
2022-08-22T03:08:24.481Z,94.40
2022-08-22T03:11:04.300Z,94.40
2022-08-22T03:13:50.619Z,94.40
2022-08-22T03:16:27.195Z,94.80
2022-08-22T03:19:02.621Z,94.50
2022-08-22T03:21:36.397Z,94.60
2022-08-22T03:24:12.077Z,94.70
2022-08-22T03:26:47.955Z,94.70
2022-08-22T03:29:23.497Z,94.70
2022-08-22T03:32:14.307Z,94.70
2022-08-22T03:34:57.498Z,94.70
2022-08-22T03:37:37.522Z,94.70
2022-08-22T03:40:22.071Z,94.90
2022-08-22T03:43:04.799Z,94.90
2022-08-22T03:46:04.269Z,94.80
2022-08-22T03:49:18.903Z,94.90
2022-08-22T03:52:04.565Z,95.00
2022-08-22T03:55:14.284Z,95.40
2022-08-22T03:58:16.329Z,95.00
2022-08-22T04:01:37.908Z,95.00
2022-08-22T04:04:56.258Z,95.00
2022-08-22T04:07:49.756Z,95.00
2022-08-22T04:10:39.693Z,95.20
2022-08-22T04:13:42.477Z,95.20
2022-08-22T04:16:48.740Z,95.20
2022-08-22T04:19:33.436Z,95.30
2022-08-22T04:22:15.761Z,95.40
2022-08-22T04:25:04.671Z,95.40
2022-08-22T04:27:40.956Z,95.40
2022-08-22T04:30:18.443Z,95.50
2022-08-22T04:32:51.479Z,95.50
2022-08-22T04:35:28.731Z,95.60
2022-08-22T04:38:02.003Z,95.60
2022-08-22T04:40:34.633Z,95.60
2022-08-22T04:43:10.383Z,95.60
2022-08-22T04:45:43.755Z,95.70
2022-08-22T04:48:20.019Z,95.70
2022-08-22T04:50:53.202Z,95.70
2022-08-22T04:53:44.942Z,95.70
2022-08-22T04:56:21.667Z,95.70
2022-08-22T04:58:54.463Z,95.70
2022-08-22T05:01:26.187Z,95.80
2022-08-22T05:03:59.350Z,95.70
2022-08-22T05:06:30.732Z,95.80
2022-08-22T05:09:07.264Z,96.10
2022-08-22T05:11:37.870Z,95.80
2022-08-22T05:14:12.588Z,95.90
2022-08-22T05:16:44.394Z,95.90
2022-08-22T05:19:18.247Z,95.90
2022-08-22T05:21:50.724Z,95.90
2022-08-22T05:24:28.192Z,95.90
2022-08-22T05:26:59.710Z,96.00
2022-08-22T05:29:31.296Z,96.00
2022-08-22T05:32:03.150Z,96.00
2022-08-22T05:34:37.216Z,96.10
2022-08-22T05:37:13.040Z,96.10
2022-08-22T05:39:48.189Z,96.20
2022-08-22T05:42:24.273Z,96.20
2022-08-22T05:44:52.660Z,96.30
2022-08-22T05:47:24.201Z,96.40
2022-08-22T05:50:01.833Z,96.30
2022-08-22T05:52:43.340Z,96.40
2022-08-22T05:55:25.918Z,96.30
2022-08-22T05:58:11.910Z,96.30
2022-08-22T06:00:44.068Z,96.30
2022-08-22T06:03:19.155Z,96.30
2022-08-22T06:05:51.305Z,96.30
2022-08-22T06:08:24.381Z,96.30
2022-08-22T06:10:56.752Z,96.30
2022-08-22T06:13:33.481Z,96.30
2022-08-22T06:16:11.741Z,96.30
2022-08-22T06:18:44.135Z,96.30
2022-08-22T06:21:14.972Z,96.30
2022-08-22T06:23:46.808Z,96.30
2022-08-22T06:26:20.739Z,96.30
2022-08-22T06:28:55.159Z,96.20
2022-08-22T06:31:29.806Z,96.20
2022-08-22T06:34:03.820Z,96.20
2022-08-22T06:36:34.167Z,96.20
2022-08-22T06:39:12.976Z,96.20
2022-08-22T06:41:47.790Z,96.20
2022-08-22T06:44:19.408Z,96.40
2022-08-22T06:46:49.708Z,96.00
2022-08-22T06:49:19.118Z,95.90
2022-08-22T06:51:48.708Z,95.90
2022-08-22T06:54:20.434Z,95.80
2022-08-22T06:56:53.592Z,96.10
2022-08-22T06:59:30.251Z,95.80
2022-08-22T07:02:04.316Z,95.70
2022-08-22T07:04:33.098Z,95.70
2022-08-22T07:07:03.369Z,95.70
2022-08-22T07:09:35.818Z,95.70
2022-08-22T07:12:14.413Z,95.60
2022-08-22T07:14:45.334Z,95.90
2022-08-22T07:17:18.638Z,95.50
2022-08-22T07:19:50.524Z,95.50
2022-08-22T07:22:23.906Z,95.60
2022-08-22T07:25:00.768Z,95.50
2022-08-22T07:27:49.018Z,95.60
2022-08-22T07:30:28.166Z,95.50
2022-08-22T07:33:25.880Z,95.40
2022-08-22T07:35:53.885Z,95.30
2022-08-22T07:38:30.751Z,95.20
2022-08-22T07:41:06.387Z,95.10
2022-08-22T07:43:40.990Z,95.00
2022-08-22T07:46:22.089Z,94.90
2022-08-22T07:49:08.745Z,94.80
2022-08-22T07:51:44.136Z,94.70
2022-08-22T07:54:14.980Z,94.50
2022-08-22T07:56:46.791Z,94.40
2022-08-22T07:59:19.649Z,94.40
2022-08-22T08:01:51.951Z,94.40
2022-08-22T08:04:24.840Z,94.40
2022-08-22T08:06:57.209Z,94.40
2022-08-22T08:09:30.067Z,94.40
2022-08-22T08:12:00.483Z,94.40
2022-08-22T08:14:31.974Z,94.30
2022-08-22T08:17:03.962Z,94.30
2022-08-22T08:19:35.293Z,94.20
2022-08-22T08:22:04.802Z,94.30
2022-08-22T08:24:40.484Z,94.30
2022-08-22T08:27:50.130Z,94.40
2022-08-22T08:30:23.441Z,94.40
2022-08-22T08:32:57.629Z,94.30
2022-08-22T08:36:02.521Z,94.20
2022-08-22T08:38:36.984Z,94.10
2022-08-22T08:41:44.885Z,94.10
2022-08-22T08:44:25.341Z,94.00
2022-08-22T08:47:18.333Z,93.70
2022-08-22T08:50:22.297Z,93.60
2022-08-22T08:53:13.125Z,93.30
2022-08-22T08:55:51.237Z,93.30
2022-08-22T08:58:43.355Z,92.90
2022-08-22T09:01:37.504Z,92.60
2022-08-22T09:04:26.521Z,92.30
2022-08-22T09:07:20.198Z,92.20
2022-08-22T09:10:07.418Z,92.30
2022-08-22T09:12:54.303Z,92.30
2022-08-22T09:16:02.370Z,92.00
2022-08-22T09:18:51.539Z,91.80
2022-08-22T09:21:43.456Z,91.30
2022-08-22T09:24:52.419Z,91.10
2022-08-22T09:27:30.720Z,90.90
2022-08-22T09:30:11.661Z,90.50
2022-08-22T09:32:54.614Z,89.50
2022-08-22T09:35:29.401Z,88.80
2022-08-22T09:38:20.654Z,88.10
2022-08-22T09:40:57.016Z,87.60
2022-08-22T09:43:37.604Z,86.00
2022-08-22T09:46:15.388Z,85.20
2022-08-22T09:48:53.430Z,85.70
2022-08-22T09:51:34.535Z,85.00
2022-08-22T09:54:20.526Z,85.20
2022-08-22T09:57:01.162Z,84.40
2022-08-22T09:59:57.968Z,83.70
2022-08-22T10:02:34.559Z,83.40
2022-08-22T10:05:35.271Z,82.00
2022-08-22T10:08:35.830Z,82.30
2022-08-22T10:11:33.744Z,81.70
2022-08-22T10:14:14.689Z,80.40
2022-08-22T10:17:03.200Z,80.00
2022-08-22T10:19:36.754Z,79.40
2022-08-22T10:22:29.983Z,79.10
2022-08-22T10:25:14.352Z,78.70
2022-08-22T10:28:01.219Z,77.70
2022-08-22T10:30:37.668Z,76.90
2022-08-22T10:33:13.959Z,76.80
2022-08-22T10:36:00.941Z,76.00
2022-08-22T10:38:46.202Z,75.60
2022-08-22T10:41:30.218Z,75.30
2022-08-22T10:44:05.278Z,75.20
2022-08-22T10:46:42.047Z,75.10
2022-08-22T10:49:20.683Z,75.00
2022-08-22T10:51:58.376Z,75.00
2022-08-22T10:54:41.507Z,75.40
2022-08-22T10:57:33.517Z,74.40
2022-08-22T11:00:12.990Z,73.90
2022-08-22T11:02:53.569Z,74.20
2022-08-22T11:05:43.117Z,73.90
2022-08-22T11:08:50.202Z,73.30
2022-08-22T11:11:34.859Z,72.80
2022-08-22T11:14:30.591Z,72.60
2022-08-22T11:17:30.931Z,72.10
2022-08-22T11:20:19.470Z,70.70
2022-08-22T11:23:00.733Z,69.90
2022-08-22T11:25:43.763Z,70.10
2022-08-22T11:28:43.300Z,70.50
2022-08-22T11:31:23.928Z,70.60
2022-08-22T11:33:58.875Z,70.60
2022-08-22T11:36:40.334Z,70.00
2022-08-22T11:39:23.585Z,69.30
2022-08-22T11:41:59.507Z,68.00
2022-08-22T11:44:32.219Z,67.00
2022-08-22T11:47:09.796Z,66.00
2022-08-22T11:49:50.435Z,64.80
2022-08-22T11:52:32.827Z,63.00
2022-08-22T11:55:24.446Z,61.30
2022-08-22T11:57:55.773Z,61.00
2022-08-22T12:00:32.026Z,60.70
2022-08-22T12:03:30.628Z,60.30
2022-08-22T12:06:04.555Z,60.20
2022-08-22T12:09:13.198Z,59.90
2022-08-22T12:11:51.870Z,60.00
2022-08-22T12:14:29.334Z,60.10
2022-08-22T12:17:28.553Z,60.40
2022-08-22T12:20:19.167Z,60.50
2022-08-22T12:23:01.118Z,59.90
2022-08-22T12:25:56.170Z,59.60
2022-08-22T12:28:30.073Z,59.20
2022-08-22T12:31:08.740Z,58.70
2022-08-22T12:33:55.486Z,58.60
2022-08-22T12:36:48.835Z,57.40
2022-08-22T12:39:57.585Z,57.40
2022-08-22T12:42:48.946Z,57.60
2022-08-22T12:45:27.811Z,56.90
2022-08-22T12:48:05.519Z,56.50
2022-08-22T12:50:44.076Z,55.60
2022-08-22T12:53:33.155Z,54.40
2022-08-22T12:56:10.460Z,54.40
2022-08-22T12:59:09.464Z,54.10
2022-08-22T13:01:43.377Z,54.10
2022-08-22T13:04:32.496Z,54.20
2022-08-22T13:07:09.492Z,53.10
2022-08-22T13:09:40.207Z,53.10
2022-08-22T13:12:22.596Z,52.60
2022-08-22T13:14:55.799Z,52.00
2022-08-22T13:17:25.804Z,51.10
2022-08-22T13:20:00.164Z,50.60
2022-08-22T13:22:31.384Z,51.10
2022-08-22T13:25:04.795Z,50.70
2022-08-22T13:27:37.552Z,50.30
2022-08-22T13:30:24.047Z,50.60
2022-08-22T13:32:55.361Z,51.20
2022-08-22T13:35:28.146Z,51.30
2022-08-22T13:38:05.408Z,50.70
2022-08-22T13:40:35.254Z,50.10
2022-08-22T13:43:09.628Z,50.20
2022-08-22T13:45:43.284Z,50.10
2022-08-22T13:48:15.018Z,50.60
2022-08-22T13:50:58.210Z,50.40
2022-08-22T13:53:34.264Z,50.40
2022-08-22T13:56:15.985Z,50.70
2022-08-22T13:58:48.346Z,49.90
2022-08-22T14:01:31.229Z,49.70
2022-08-22T14:04:05.518Z,49.90
2022-08-22T14:06:55.938Z,50.00
2022-08-22T14:09:38.080Z,49.80
2022-08-22T14:12:12.196Z,50.00
2022-08-22T14:14:43.135Z,49.90
2022-08-22T14:17:19.541Z,49.70
2022-08-22T14:19:58.810Z,49.70
2022-08-22T14:22:35.473Z,49.20
2022-08-22T14:25:08.814Z,48.70
2022-08-22T14:27:40.435Z,48.50
2022-08-22T14:30:16.307Z,48.10
2022-08-22T14:32:54.199Z,48.00
2022-08-22T14:35:35.170Z,48.00
2022-08-22T14:38:39.562Z,47.80
2022-08-22T14:41:28.499Z,47.10
2022-08-22T14:44:23.345Z,47.20
2022-08-22T14:46:57.114Z,48.10
2022-08-22T14:49:36.124Z,48.30
2022-08-22T14:52:09.286Z,47.50
2022-08-22T14:54:39.235Z,47.70
2022-08-22T14:57:20.316Z,48.20
2022-08-22T14:59:54.371Z,48.70
2022-08-22T15:02:28.747Z,48.60
2022-08-22T15:05:05.681Z,48.30
2022-08-22T15:07:37.473Z,48.80
2022-08-22T15:10:11.886Z,49.20
2022-08-22T15:12:49.845Z,49.20
2022-08-22T15:15:33.479Z,48.40
2022-08-22T15:25:59.461Z,48.60
2022-08-22T15:28:52.322Z,48.70
2022-08-22T15:31:20.748Z,48.40
2022-08-22T15:33:49.817Z,46.90
2022-08-22T15:36:21.988Z,46.40
2022-08-22T15:38:52.492Z,46.40
2022-08-22T15:41:38.182Z,46.40
2022-08-22T15:44:14.872Z,46.60
2022-08-22T15:47:04.407Z,47.20
2022-08-22T15:49:37.833Z,46.30
2022-08-22T15:52:16.105Z,46.10
2022-08-22T15:55:29.118Z,45.90
2022-08-22T15:58:09.374Z,46.20
2022-08-22T16:00:45.265Z,46.10
2022-08-22T16:03:25.523Z,46.80
2022-08-22T16:05:57.449Z,46.90
2022-08-22T16:08:32.913Z,47.20
2022-08-22T16:11:23.505Z,46.20
2022-08-22T16:14:25.471Z,45.90
2022-08-22T16:17:03.647Z,45.30
2022-08-22T16:19:33.322Z,45.40
2022-08-22T16:22:13.344Z,45.80
2022-08-22T16:25:14.318Z,46.50
2022-08-22T16:27:55.236Z,46.80
2022-08-22T16:30:37.434Z,47.20
2022-08-22T16:33:17.853Z,47.30
2022-08-22T16:36:26.165Z,46.90
2022-08-22T16:38:58.150Z,47.30
2022-08-22T16:41:35.387Z,47.30
2022-08-22T16:44:41.543Z,47.20
2022-08-22T16:47:17.712Z,47.40
2022-08-22T16:49:58.741Z,47.00
2022-08-22T16:52:54.900Z,47.10
2022-08-22T16:55:46.568Z,47.60
2022-08-22T16:58:55.802Z,47.40
2022-08-22T17:01:35.985Z,47.20
2022-08-22T17:04:18.093Z,47.80
2022-08-22T17:07:01.622Z,48.60
2022-08-22T17:10:02.912Z,48.80
2022-08-22T17:12:48.438Z,49.00
2022-08-22T17:15:30.486Z,49.20
2022-08-22T17:18:15.873Z,49.20
2022-08-22T17:21:04.063Z,49.30
2022-08-22T17:23:40.769Z,49.40
2022-08-22T17:26:20.901Z,49.40
2022-08-22T17:28:58.481Z,49.10
2022-08-22T17:31:33.280Z,48.90
2022-08-22T17:34:16.776Z,49.00
2022-08-22T17:37:02.395Z,48.70
2022-08-22T17:39:56.160Z,48.80
2022-08-22T17:42:52.747Z,49.00
2022-08-22T17:45:34.030Z,49.00
2022-08-22T17:48:07.818Z,48.90
2022-08-22T17:50:43.808Z,48.60
2022-08-22T17:53:27.613Z,49.30
2022-08-22T17:56:05.925Z,48.70
2022-08-22T17:58:44.044Z,48.90
2022-08-22T18:01:16.305Z,49.10
2022-08-22T18:03:52.035Z,49.50
2022-08-22T18:06:24.175Z,49.70
2022-08-22T18:09:15.192Z,49.40
2022-08-22T18:11:49.558Z,49.60
2022-08-22T18:14:23.250Z,49.80
2022-08-22T18:16:55.059Z,50.20
2022-08-22T18:19:39.605Z,51.00
2022-08-22T18:22:12.231Z,51.20
2022-08-22T18:24:49.916Z,51.40
2022-08-22T18:27:34.153Z,51.40
2022-08-22T18:30:16.148Z,51.30
2022-08-22T18:32:52.600Z,51.70
2022-08-22T18:35:28.808Z,51.70
2022-08-22T18:38:03.610Z,51.80
2022-08-22T18:40:55.589Z,52.70
2022-08-22T18:43:36.747Z,52.80
2022-08-22T18:46:28.486Z,53.20
2022-08-22T18:49:15.175Z,53.60
2022-08-22T18:51:44.514Z,54.00
2022-08-22T18:54:38.589Z,54.20
2022-08-22T18:57:30.813Z,54.40
2022-08-22T19:00:09.386Z,54.80
2022-08-22T19:03:07.879Z,55.30
2022-08-22T19:06:09.993Z,55.90
2022-08-22T19:09:04.323Z,56.00
2022-08-22T19:11:46.157Z,56.50
2022-08-22T19:14:34.557Z,56.80
2022-08-22T19:17:37.735Z,57.10
2022-08-22T19:20:28.680Z,57.30
2022-08-22T19:23:30.248Z,57.40
2022-08-22T19:26:25.836Z,58.20
2022-08-22T19:28:56.569Z,58.50
2022-08-22T19:31:44.365Z,58.90
2022-08-22T19:34:22.105Z,59.00
2022-08-22T19:37:32.101Z,59.20
2022-08-22T19:40:05.045Z,59.20
2022-08-22T19:42:39.941Z,59.50
2022-08-22T19:45:20.212Z,59.80
2022-08-22T19:47:59.695Z,60.40
2022-08-22T19:50:33.662Z,60.90
2022-08-22T19:53:34.558Z,61.60
2022-08-22T19:56:14.064Z,62.20
2022-08-22T19:59:00.920Z,62.30
2022-08-22T20:01:44.611Z,62.30
2022-08-22T20:04:36.905Z,62.60
2022-08-22T20:07:14.675Z,62.90
2022-08-22T20:09:52.880Z,62.90
2022-08-22T20:12:30.730Z,62.80
2022-08-22T20:15:10.933Z,62.80
2022-08-22T20:17:43.416Z,62.90
2022-08-22T20:20:36.182Z,63.00
2022-08-22T20:23:10.374Z,62.90
2022-08-22T20:25:44.182Z,63.50
2022-08-22T20:28:31.602Z,63.60
2022-08-22T20:31:02.697Z,64.10
2022-08-22T20:33:35.104Z,64.20
2022-08-22T20:36:16.680Z,64.40
2022-08-22T20:38:59.379Z,65.50
2022-08-22T20:41:32.784Z,64.60
2022-08-22T20:44:05.784Z,64.50
2022-08-22T20:46:47.632Z,64.80
2022-08-22T20:49:24.654Z,65.00
2022-08-22T20:52:00.580Z,65.90
2022-08-22T20:54:30.819Z,65.10
2022-08-22T20:57:01.997Z,65.30
2022-08-22T20:59:39.342Z,65.60
2022-08-22T21:02:17.370Z,65.90
2022-08-22T21:04:54.083Z,66.30
2022-08-22T21:07:25.748Z,66.90
2022-08-22T21:10:22.064Z,67.20
2022-08-22T21:13:10.311Z,67.60
2022-08-22T21:15:41.275Z,67.80
2022-08-22T21:18:11.073Z,68.10
2022-08-22T21:20:39.836Z,68.60
2022-08-22T21:23:13.635Z,68.70
2022-08-22T21:25:51.906Z,68.80
2022-08-22T21:28:31.710Z,68.90
2022-08-22T21:31:01.813Z,69.20
2022-08-22T21:33:29.914Z,69.50
2022-08-22T21:36:00.720Z,69.90
2022-08-22T21:38:30.328Z,70.30
2022-08-22T21:41:05.384Z,70.80
2022-08-22T21:43:37.763Z,71.00
2022-08-22T21:46:07.750Z,71.30
2022-08-22T21:48:39.944Z,72.30
2022-08-22T21:51:25.552Z,71.70
2022-08-22T21:54:29.997Z,71.60
2022-08-22T21:57:01.169Z,71.80
2022-08-22T21:59:52.034Z,72.20
2022-08-22T22:02:31.343Z,72.30
2022-08-22T22:05:04.722Z,72.50
2022-08-22T22:07:37.714Z,72.70
2022-08-22T22:10:10.552Z,72.90
2022-08-22T22:12:40.705Z,72.90
2022-08-22T22:15:10.383Z,72.90
2022-08-22T22:17:40.580Z,73.10
2022-08-22T22:20:09.630Z,73.30
2022-08-22T22:22:46.338Z,73.30
2022-08-22T22:25:39.884Z,73.60
2022-08-22T22:28:10.210Z,73.70
2022-08-22T22:30:39.345Z,73.70
2022-08-22T22:33:07.369Z,73.90
2022-08-22T22:35:38.273Z,74.00
2022-08-22T22:38:08.121Z,74.20
2022-08-22T22:40:37.727Z,73.90
2022-08-22T22:43:05.828Z,74.20
2022-08-22T22:45:33.923Z,74.20
2022-08-22T22:48:02.037Z,74.30
2022-08-22T22:50:30.068Z,74.40
2022-08-22T22:52:58.221Z,74.40
2022-08-22T22:55:26.521Z,74.40
2022-08-22T22:57:59.335Z,74.80
2022-08-22T23:00:31.112Z,75.00
2022-08-22T23:03:00.185Z,75.20
2022-08-22T23:05:29.140Z,75.50
2022-08-22T23:07:57.818Z,75.50
2022-08-22T23:10:26.434Z,75.60
2022-08-22T23:12:55.818Z,75.60
2022-08-22T23:15:23.879Z,75.70
2022-08-22T23:17:52.035Z,75.90
2022-08-22T23:20:20.344Z,75.90
2022-08-22T23:22:48.756Z,76.00
2022-08-22T23:25:16.904Z,76.10
2022-08-22T23:27:44.978Z,76.30
2022-08-22T23:30:21.789Z,76.50
2022-08-22T23:32:50.180Z,76.70
2022-08-22T23:35:18.360Z,76.70
2022-08-22T23:37:46.386Z,76.90
2022-08-22T23:40:14.580Z,77.20
2022-08-22T23:42:43.056Z,77.30
2022-08-22T23:45:11.512Z,77.40
2022-08-22T23:47:41.053Z,77.60
2022-08-22T23:50:09.528Z,77.90
2022-08-22T23:52:37.589Z,78.20
2022-08-22T23:55:06.142Z,78.30
2022-08-22T23:57:34.357Z,78.40
